sensor_id;sensor_type;location;lat;lon;timestamp;P1;durP1;ratioP1;P2;durP2;ratioP2
7398;SDS011;3740;50.700;7.184;2022-07-21T00:00:05;10.30;;;8.52;;
7398;SDS011;3740;50.700;7.184;2022-07-21T00:02:53;9.55;;;8.65;;
7398;SDS011;3740;50.700;7.184;2022-07-21T00:05:40;14.93;;;9.70;;
7398;SDS011;3740;50.700;7.184;2022-07-21T00:08:26;11.02;;;9.60;;
7398;SDS011;3740;50.700;7.184;2022-07-21T00:11:12;10.02;;;9.05;;
7398;SDS011;3740;50.700;7.184;2022-07-21T00:13:58;8.77;;;7.97;;
7398;SDS011;3740;50.700;7.184;2022-07-21T00:16:44;9.20;;;8.38;;
7398;SDS011;3740;50.700;7.184;2022-07-21T00:19:30;9.05;;;8.15;;
7398;SDS011;3740;50.700;7.184;2022-07-21T00:22:16;8.68;;;7.90;;
7398;SDS011;3740;50.700;7.184;2022-07-21T00:25:03;8.85;;;7.95;;
7398;SDS011;3740;50.700;7.184;2022-07-21T00:27:49;8.88;;;8.18;;
7398;SDS011;3740;50.700;7.184;2022-07-21T00:30:35;8.77;;;8.00;;
7398;SDS011;3740;50.700;7.184;2022-07-21T00:33:21;8.40;;;7.60;;
7398;SDS011;3740;50.700;7.184;2022-07-21T00:36:07;9.60;;;8.75;;
7398;SDS011;3740;50.700;7.184;2022-07-21T00:38:53;8.20;;;7.50;;
7398;SDS011;3740;50.700;7.184;2022-07-21T00:41:39;8.45;;;7.75;;
7398;SDS011;3740;50.700;7.184;2022-07-21T00:44:26;9.05;;;8.15;;
7398;SDS011;3740;50.700;7.184;2022-07-21T00:47:12;8.85;;;8.15;;
7398;SDS011;3740;50.700;7.184;2022-07-21T00:49:59;9.32;;;8.43;;
7398;SDS011;3740;50.700;7.184;2022-07-21T00:52:46;9.40;;;8.38;;
7398;SDS011;3740;50.700;7.184;2022-07-21T00:55:33;9.75;;;8.85;;
7398;SDS011;3740;50.700;7.184;2022-07-21T00:58:19;8.13;;;7.43;;
7398;SDS011;3740;50.700;7.184;2022-07-21T01:01:05;8.15;;;7.45;;
7398;SDS011;3740;50.700;7.184;2022-07-21T01:03:51;8.63;;;7.93;;
7398;SDS011;3740;50.700;7.184;2022-07-21T01:06:37;7.85;;;7.25;;
7398;SDS011;3740;50.700;7.184;2022-07-21T01:09:23;8.52;;;7.82;;
7398;SDS011;3740;50.700;7.184;2022-07-21T01:12:09;8.07;;;7.38;;
7398;SDS011;3740;50.700;7.184;2022-07-21T01:14:55;8.60;;;7.70;;
7398;SDS011;3740;50.700;7.184;2022-07-21T01:17:42;7.78;;;7.18;;
7398;SDS011;3740;50.700;7.184;2022-07-21T01:20:31;8.90;;;8.10;;
7398;SDS011;3740;50.700;7.184;2022-07-21T01:23:20;8.32;;;7.63;;
7398;SDS011;3740;50.700;7.184;2022-07-21T01:26:07;8.60;;;7.75;;
7398;SDS011;3740;50.700;7.184;2022-07-21T01:28:53;8.07;;;7.38;;
7398;SDS011;3740;50.700;7.184;2022-07-21T01:31:40;8.20;;;7.50;;
7398;SDS011;3740;50.700;7.184;2022-07-21T01:34:27;7.68;;;7.07;;
7398;SDS011;3740;50.700;7.184;2022-07-21T01:37:13;7.97;;;7.28;;
7398;SDS011;3740;50.700;7.184;2022-07-21T01:39:59;8.13;;;7.38;;
7398;SDS011;3740;50.700;7.184;2022-07-21T01:43:04;8.48;;;7.78;;
7398;SDS011;3740;50.700;7.184;2022-07-21T01:45:50;8.40;;;7.70;;
7398;SDS011;3740;50.700;7.184;2022-07-21T01:48:40;8.10;;;7.32;;
7398;SDS011;3740;50.700;7.184;2022-07-21T01:51:29;8.07;;;7.47;;
7398;SDS011;3740;50.700;7.184;2022-07-21T01:54:15;8.55;;;7.75;;
7398;SDS011;3740;50.700;7.184;2022-07-21T01:57:01;8.48;;;7.38;;
7398;SDS011;3740;50.700;7.184;2022-07-21T01:59:47;8.63;;;7.82;;
7398;SDS011;3740;50.700;7.184;2022-07-21T02:02:33;7.97;;;7.28;;
7398;SDS011;3740;50.700;7.184;2022-07-21T02:05:19;8.88;;;8.18;;
7398;SDS011;3740;50.700;7.184;2022-07-21T02:08:05;8.52;;;7.82;;
7398;SDS011;3740;50.700;7.184;2022-07-21T02:10:50;9.25;;;8.35;;
7398;SDS011;3740;50.700;7.184;2022-07-21T02:13:36;7.45;;;6.85;;
7398;SDS011;3740;50.700;7.184;2022-07-21T02:16:22;9.02;;;8.23;;
7398;SDS011;3740;50.700;7.184;2022-07-21T02:19:08;9.50;;;8.70;;
7398;SDS011;3740;50.700;7.184;2022-07-21T02:21:54;9.00;;;8.15;;
7398;SDS011;3740;50.700;7.184;2022-07-21T02:24:40;9.45;;;8.65;;
7398;SDS011;3740;50.700;7.184;2022-07-21T02:27:26;9.82;;;9.00;;
7398;SDS011;3740;50.700;7.184;2022-07-21T02:30:13;9.48;;;8.68;;
7398;SDS011;3740;50.700;7.184;2022-07-21T02:32:59;9.50;;;8.70;;
7398;SDS011;3740;50.700;7.184;2022-07-21T02:35:45;9.77;;;8.90;;
7398;SDS011;3740;50.700;7.184;2022-07-21T02:38:31;9.48;;;8.68;;
7398;SDS011;3740;50.700;7.184;2022-07-21T02:41:17;9.75;;;8.85;;
7398;SDS011;3740;50.700;7.184;2022-07-21T02:44:03;9.27;;;8.40;;
7398;SDS011;3740;50.700;7.184;2022-07-21T02:46:49;9.18;;;8.48;;
7398;SDS011;3740;50.700;7.184;2022-07-21T02:49:34;9.65;;;8.85;;
7398;SDS011;3740;50.700;7.184;2022-07-21T02:52:20;9.13;;;8.25;;
7398;SDS011;3740;50.700;7.184;2022-07-21T02:55:06;8.70;;;7.90;;
7398;SDS011;3740;50.700;7.184;2022-07-21T02:58:07;8.82;;;8.02;;
7398;SDS011;3740;50.700;7.184;2022-07-21T03:01:00;9.50;;;7.90;;
7398;SDS011;3740;50.700;7.184;2022-07-21T03:03:48;7.57;;;6.97;;
7398;SDS011;3740;50.700;7.184;2022-07-21T03:06:34;7.65;;;6.90;;
7398;SDS011;3740;50.700;7.184;2022-07-21T03:09:20;7.35;;;6.75;;
7398;SDS011;3740;50.700;7.184;2022-07-21T03:12:06;7.50;;;6.80;;
7398;SDS011;3740;50.700;7.184;2022-07-21T03:14:52;7.78;;;7.18;;
7398;SDS011;3740;50.700;7.184;2022-07-21T03:17:38;7.82;;;7.07;;
7398;SDS011;3740;50.700;7.184;2022-07-21T03:20:24;7.65;;;7.05;;
7398;SDS011;3740;50.700;7.184;2022-07-21T03:23:11;7.53;;;6.95;;
7398;SDS011;3740;50.700;7.184;2022-07-21T03:25:57;8.23;;;7.40;;
7398;SDS011;3740;50.700;7.184;2022-07-21T03:28:43;8.07;;;7.38;;
7398;SDS011;3740;50.700;7.184;2022-07-21T03:31:29;7.88;;;7.20;;
7398;SDS011;3740;50.700;7.184;2022-07-21T03:34:15;7.65;;;6.93;;
7398;SDS011;3740;50.700;7.184;2022-07-21T03:37:01;7.75;;;7.15;;
7398;SDS011;3740;50.700;7.184;2022-07-21T03:39:48;7.82;;;7.22;;
7398;SDS011;3740;50.700;7.184;2022-07-21T03:42:34;7.28;;;6.72;;
7398;SDS011;3740;50.700;7.184;2022-07-21T03:45:20;7.07;;;6.53;;
7398;SDS011;3740;50.700;7.184;2022-07-21T03:48:07;7.65;;;7.03;;
7398;SDS011;3740;50.700;7.184;2022-07-21T03:50:54;7.40;;;6.80;;
7398;SDS011;3740;50.700;7.184;2022-07-21T03:53:39;6.93;;;6.32;;
7398;SDS011;3740;50.700;7.184;2022-07-21T03:56:25;6.72;;;6.22;;
7398;SDS011;3740;50.700;7.184;2022-07-21T03:59:11;6.90;;;6.40;;
7398;SDS011;3740;50.700;7.184;2022-07-21T04:01:57;7.40;;;6.80;;
7398;SDS011;3740;50.700;7.184;2022-07-21T04:04:43;7.70;;;7.00;;
7398;SDS011;3740;50.700;7.184;2022-07-21T04:07:29;7.45;;;6.85;;
7398;SDS011;3740;50.700;7.184;2022-07-21T04:10:15;7.85;;;7.15;;
7398;SDS011;3740;50.700;7.184;2022-07-21T04:13:04;7.55;;;6.85;;
7398;SDS011;3740;50.700;7.184;2022-07-21T04:15:52;7.53;;;6.90;;
7398;SDS011;3740;50.700;7.184;2022-07-21T04:18:38;7.55;;;6.93;;
7398;SDS011;3740;50.700;7.184;2022-07-21T04:21:24;7.07;;;6.50;;
7398;SDS011;3740;50.700;7.184;2022-07-21T04:24:09;7.47;;;6.88;;
7398;SDS011;3740;50.700;7.184;2022-07-21T04:26:55;7.38;;;6.68;;
7398;SDS011;3740;50.700;7.184;2022-07-21T04:29:41;6.82;;;6.22;;
7398;SDS011;3740;50.700;7.184;2022-07-21T04:32:27;7.38;;;6.78;;
7398;SDS011;3740;50.700;7.184;2022-07-21T04:35:13;8.00;;;7.20;;
7398;SDS011;3740;50.700;7.184;2022-07-21T04:38:00;8.40;;;7.70;;
7398;SDS011;3740;50.700;7.184;2022-07-21T04:40:46;7.57;;;6.97;;
7398;SDS011;3740;50.700;7.184;2022-07-21T04:43:32;8.10;;;7.35;;
7398;SDS011;3740;50.700;7.184;2022-07-21T04:46:17;8.90;;;8.20;;
7398;SDS011;3740;50.700;7.184;2022-07-21T04:49:03;8.15;;;7.50;;
7398;SDS011;3740;50.700;7.184;2022-07-21T04:51:49;9.35;;;8.45;;
7398;SDS011;3740;50.700;7.184;2022-07-21T04:54:35;8.43;;;7.65;;
7398;SDS011;3740;50.700;7.184;2022-07-21T04:57:21;8.23;;;7.53;;
7398;SDS011;3740;50.700;7.184;2022-07-21T05:00:11;8.32;;;7.55;;
7398;SDS011;3740;50.700;7.184;2022-07-21T05:02:58;8.07;;;7.38;;
7398;SDS011;3740;50.700;7.184;2022-07-21T05:05:44;8.88;;;8.07;;
7398;SDS011;3740;50.700;7.184;2022-07-21T05:08:30;8.07;;;7.38;;
7398;SDS011;3740;50.700;7.184;2022-07-21T05:11:16;8.40;;;7.68;;
7398;SDS011;3740;50.700;7.184;2022-07-21T05:14:02;8.65;;;7.95;;
7398;SDS011;3740;50.700;7.184;2022-07-21T05:16:48;9.07;;;8.27;;
7398;SDS011;3740;50.700;7.184;2022-07-21T05:19:34;7.75;;;7.13;;
7398;SDS011;3740;50.700;7.184;2022-07-21T05:22:20;8.20;;;7.45;;
7398;SDS011;3740;50.700;7.184;2022-07-21T05:25:06;8.55;;;7.90;;
7398;SDS011;3740;50.700;7.184;2022-07-21T05:27:52;9.68;;;8.75;;
7398;SDS011;3740;50.700;7.184;2022-07-21T05:30:38;8.82;;;7.90;;
7398;SDS011;3740;50.700;7.184;2022-07-21T05:33:24;8.13;;;7.50;;
7398;SDS011;3740;50.700;7.184;2022-07-21T05:36:10;9.65;;;8.73;;
7398;SDS011;3740;50.700;7.184;2022-07-21T05:38:57;9.57;;;8.68;;
7398;SDS011;3740;50.700;7.184;2022-07-21T05:41:43;9.90;;;9.00;;
7398;SDS011;3740;50.700;7.184;2022-07-21T05:44:29;9.88;;;9.05;;
7398;SDS011;3740;50.700;7.184;2022-07-21T05:47:14;11.57;;;10.57;;
7398;SDS011;3740;50.700;7.184;2022-07-21T05:50:00;11.07;;;10.07;;
7398;SDS011;3740;50.700;7.184;2022-07-21T05:52:46;11.35;;;10.45;;
7398;SDS011;3740;50.700;7.184;2022-07-21T05:55:32;12.13;;;11.13;;
7398;SDS011;3740;50.700;7.184;2022-07-21T05:58:18;12.52;;;11.43;;
7398;SDS011;3740;50.700;7.184;2022-07-21T06:01:08;11.90;;;10.90;;
7398;SDS011;3740;50.700;7.184;2022-07-21T06:03:54;12.00;;;10.98;;
7398;SDS011;3740;50.700;7.184;2022-07-21T06:06:40;12.45;;;11.35;;
7398;SDS011;3740;50.700;7.184;2022-07-21T06:09:26;10.63;;;9.73;;
7398;SDS011;3740;50.700;7.184;2022-07-21T06:12:12;12.70;;;11.52;;
7398;SDS011;3740;50.700;7.184;2022-07-21T06:14:57;11.32;;;10.43;;
7398;SDS011;3740;50.700;7.184;2022-07-21T06:17:44;12.25;;;11.15;;
7398;SDS011;3740;50.700;7.184;2022-07-21T06:20:30;13.35;;;11.88;;
7398;SDS011;3740;50.700;7.184;2022-07-21T06:23:16;11.63;;;10.52;;
7398;SDS011;3740;50.700;7.184;2022-07-21T06:26:02;11.57;;;10.23;;
7398;SDS011;3740;50.700;7.184;2022-07-21T06:28:48;10.35;;;9.35;;
7398;SDS011;3740;50.700;7.184;2022-07-21T06:31:34;10.25;;;9.35;;
7398;SDS011;3740;50.700;7.184;2022-07-21T06:34:20;10.63;;;9.65;;
7398;SDS011;3740;50.700;7.184;2022-07-21T06:37:06;7.70;;;7.00;;
7398;SDS011;3740;50.700;7.184;2022-07-21T06:39:52;8.20;;;7.50;;
7398;SDS011;3740;50.700;7.184;2022-07-21T06:42:38;8.00;;;7.20;;
7398;SDS011;3740;50.700;7.184;2022-07-21T06:45:23;8.23;;;7.53;;
7398;SDS011;3740;50.700;7.184;2022-07-21T06:48:10;8.70;;;7.80;;
7398;SDS011;3740;50.700;7.184;2022-07-21T06:50:56;6.47;;;5.95;;
7398;SDS011;3740;50.700;7.184;2022-07-21T06:53:42;7.13;;;5.97;;
7398;SDS011;3740;50.700;7.184;2022-07-21T06:56:28;5.90;;;5.38;;
7398;SDS011;3740;50.700;7.184;2022-07-21T06:59:15;6.13;;;5.53;;
7398;SDS011;3740;50.700;7.184;2022-07-21T07:02:01;5.72;;;5.10;;
7398;SDS011;3740;50.700;7.184;2022-07-21T07:04:47;6.28;;;5.68;;
7398;SDS011;3740;50.700;7.184;2022-07-21T07:07:32;5.35;;;4.95;;
7398;SDS011;3740;50.700;7.184;2022-07-21T07:10:18;6.00;;;5.50;;
7398;SDS011;3740;50.700;7.184;2022-07-21T07:13:04;5.28;;;4.78;;
7398;SDS011;3740;50.700;7.184;2022-07-21T07:15:50;5.22;;;4.82;;
7398;SDS011;3740;50.700;7.184;2022-07-21T07:18:37;5.43;;;5.03;;
7398;SDS011;3740;50.700;7.184;2022-07-21T07:21:23;5.43;;;5.03;;
7398;SDS011;3740;50.700;7.184;2022-07-21T07:24:09;5.90;;;5.40;;
7398;SDS011;3740;50.700;7.184;2022-07-21T07:26:55;5.80;;;5.30;;
7398;SDS011;3740;50.700;7.184;2022-07-21T07:29:42;6.13;;;5.63;;
7398;SDS011;3740;50.700;7.184;2022-07-21T07:32:28;6.90;;;6.28;;
7398;SDS011;3740;50.700;7.184;2022-07-21T07:35:14;6.50;;;5.90;;
7398;SDS011;3740;50.700;7.184;2022-07-21T07:38:01;6.55;;;5.95;;
7398;SDS011;3740;50.700;7.184;2022-07-21T07:40:47;6.40;;;6.00;;
7398;SDS011;3740;50.700;7.184;2022-07-21T07:43:33;7.22;;;6.53;;
7398;SDS011;3740;50.700;7.184;2022-07-21T07:46:19;7.00;;;6.40;;
7398;SDS011;3740;50.700;7.184;2022-07-21T07:49:05;6.50;;;6.00;;
7398;SDS011;3740;50.700;7.184;2022-07-21T07:51:51;7.68;;;7.07;;
7398;SDS011;3740;50.700;7.184;2022-07-21T07:54:36;6.28;;;5.78;;
7398;SDS011;3740;50.700;7.184;2022-07-21T07:57:22;7.05;;;6.35;;
7398;SDS011;3740;50.700;7.184;2022-07-21T08:00:12;7.00;;;6.40;;
7398;SDS011;3740;50.700;7.184;2022-07-21T08:03:00;7.03;;;6.47;;
7398;SDS011;3740;50.700;7.184;2022-07-21T08:05:46;7.05;;;6.40;;
7398;SDS011;3740;50.700;7.184;2022-07-21T08:08:32;6.95;;;6.43;;
7398;SDS011;3740;50.700;7.184;2022-07-21T08:11:18;7.68;;;7.00;;
7398;SDS011;3740;50.700;7.184;2022-07-21T08:14:04;7.68;;;6.70;;
7398;SDS011;3740;50.700;7.184;2022-07-21T08:16:50;8.45;;;7.20;;
7398;SDS011;3740;50.700;7.184;2022-07-21T08:19:36;7.07;;;6.20;;
7398;SDS011;3740;50.700;7.184;2022-07-21T08:22:22;8.15;;;7.35;;
7398;SDS011;3740;50.700;7.184;2022-07-21T08:25:08;6.90;;;6.30;;
7398;SDS011;3740;50.700;7.184;2022-07-21T08:27:54;6.80;;;6.20;;
7398;SDS011;3740;50.700;7.184;2022-07-21T08:30:40;6.47;;;5.97;;
7398;SDS011;3740;50.700;7.184;2022-07-21T08:33:27;6.30;;;5.80;;
7398;SDS011;3740;50.700;7.184;2022-07-21T08:36:13;6.28;;;5.78;;
7398;SDS011;3740;50.700;7.184;2022-07-21T08:38:59;6.55;;;5.72;;
7398;SDS011;3740;50.700;7.184;2022-07-21T08:41:44;5.60;;;5.07;;
7398;SDS011;3740;50.700;7.184;2022-07-21T08:44:30;5.32;;;4.80;;
7398;SDS011;3740;50.700;7.184;2022-07-21T08:47:17;5.22;;;4.75;;
7398;SDS011;3740;50.700;7.184;2022-07-21T08:50:03;5.40;;;4.88;;
7398;SDS011;3740;50.700;7.184;2022-07-21T08:52:50;5.90;;;4.50;;
7398;SDS011;3740;50.700;7.184;2022-07-21T08:55:36;4.95;;;4.40;;
7398;SDS011;3740;50.700;7.184;2022-07-21T08:58:24;4.68;;;4.05;;
7398;SDS011;3740;50.700;7.184;2022-07-21T09:01:10;5.13;;;4.15;;
7398;SDS011;3740;50.700;7.184;2022-07-21T09:03:56;4.65;;;4.25;;
7398;SDS011;3740;50.700;7.184;2022-07-21T09:07:05;4.40;;;4.00;;
7398;SDS011;3740;50.700;7.184;2022-07-21T09:09:56;5.38;;;4.03;;
7398;SDS011;3740;50.700;7.184;2022-07-21T09:12:48;4.40;;;4.00;;
7398;SDS011;3740;50.700;7.184;2022-07-21T09:15:41;4.82;;;4.30;;
7398;SDS011;3740;50.700;7.184;2022-07-21T09:18:32;5.13;;;4.47;;
7398;SDS011;3740;50.700;7.184;2022-07-21T09:21:18;4.55;;;4.10;;
7398;SDS011;3740;50.700;7.184;2022-07-21T09:24:11;4.25;;;3.95;;
7398;SDS011;3740;50.700;7.184;2022-07-21T09:27:04;6.18;;;4.40;;
7398;SDS011;3740;50.700;7.184;2022-07-21T09:29:53;4.30;;;3.97;;
7398;SDS011;3740;50.700;7.184;2022-07-21T09:32:45;4.65;;;4.15;;
7398;SDS011;3740;50.700;7.184;2022-07-21T09:35:31;4.65;;;4.25;;
7398;SDS011;3740;50.700;7.184;2022-07-21T09:38:17;4.22;;;3.83;;
7398;SDS011;3740;50.700;7.184;2022-07-21T09:43:53;4.65;;;4.25;;
7398;SDS011;3740;50.700;7.184;2022-07-21T09:46:41;5.35;;;4.50;;
7398;SDS011;3740;50.700;7.184;2022-07-21T09:49:31;4.82;;;4.30;;
7398;SDS011;3740;50.700;7.184;2022-07-21T09:52:18;4.60;;;4.20;;
7398;SDS011;3740;50.700;7.184;2022-07-21T09:55:05;5.38;;;4.70;;
7398;SDS011;3740;50.700;7.184;2022-07-21T09:57:59;4.40;;;4.00;;
7398;SDS011;3740;50.700;7.184;2022-07-21T10:00:46;4.85;;;4.35;;
7398;SDS011;3740;50.700;7.184;2022-07-21T10:03:33;4.57;;;4.18;;
7398;SDS011;3740;50.700;7.184;2022-07-21T10:06:23;4.20;;;3.80;;
7398;SDS011;3740;50.700;7.184;2022-07-21T10:09:10;4.72;;;4.22;;
7398;SDS011;3740;50.700;7.184;2022-07-21T10:11:56;4.97;;;4.45;;
7398;SDS011;3740;50.700;7.184;2022-07-21T10:14:42;4.35;;;3.95;;
7398;SDS011;3740;50.700;7.184;2022-07-21T10:17:29;4.82;;;4.43;;
7398;SDS011;3740;50.700;7.184;2022-07-21T10:20:21;4.80;;;4.40;;
7398;SDS011;3740;50.700;7.184;2022-07-21T10:23:22;4.95;;;4.45;;
7398;SDS011;3740;50.700;7.184;2022-07-21T10:26:21;5.97;;;4.50;;
7398;SDS011;3740;50.700;7.184;2022-07-21T10:29:07;4.43;;;4.10;;
7398;SDS011;3740;50.700;7.184;2022-07-21T10:31:53;4.60;;;4.20;;
7398;SDS011;3740;50.700;7.184;2022-07-21T10:34:56;4.38;;;4.07;;
7398;SDS011;3740;50.700;7.184;2022-07-21T10:37:44;4.72;;;4.20;;
7398;SDS011;3740;50.700;7.184;2022-07-21T10:46:31;4.47;;;4.07;;
7398;SDS011;3740;50.700;7.184;2022-07-21T10:49:40;5.40;;;4.00;;
7398;SDS011;3740;50.700;7.184;2022-07-21T10:55:35;4.57;;;4.28;;
7398;SDS011;3740;50.700;7.184;2022-07-21T10:58:26;4.65;;;4.25;;
7398;SDS011;3740;50.700;7.184;2022-07-21T11:01:20;6.15;;;4.10;;
7398;SDS011;3740;50.700;7.184;2022-07-21T11:04:13;4.90;;;4.50;;
7398;SDS011;3740;50.700;7.184;2022-07-21T11:07:03;4.85;;;4.35;;
7398;SDS011;3740;50.700;7.184;2022-07-21T11:10:13;5.05;;;4.18;;
7398;SDS011;3740;50.700;7.184;2022-07-21T11:13:01;5.25;;;4.80;;
7398;SDS011;3740;50.700;7.184;2022-07-21T11:15:53;5.65;;;4.50;;
7398;SDS011;3740;50.700;7.184;2022-07-21T11:18:44;5.35;;;4.90;;
7398;SDS011;3740;50.700;7.184;2022-07-21T11:21:31;6.22;;;4.47;;
7398;SDS011;3740;50.700;7.184;2022-07-21T11:24:23;4.60;;;4.15;;
7398;SDS011;3740;50.700;7.184;2022-07-21T11:27:15;4.80;;;4.38;;
7398;SDS011;3740;50.700;7.184;2022-07-21T11:30:04;5.15;;;4.75;;
7398;SDS011;3740;50.700;7.184;2022-07-21T11:32:51;5.82;;;4.97;;
7398;SDS011;3740;50.700;7.184;2022-07-21T11:35:37;5.30;;;4.80;;
7398;SDS011;3740;50.700;7.184;2022-07-21T11:38:23;4.97;;;4.57;;
7398;SDS011;3740;50.700;7.184;2022-07-21T11:41:16;4.80;;;4.40;;
7398;SDS011;3740;50.700;7.184;2022-07-21T11:44:04;5.10;;;4.57;;
7398;SDS011;3740;50.700;7.184;2022-07-21T11:46:52;5.72;;;5.10;;
7398;SDS011;3740;50.700;7.184;2022-07-21T11:49:39;10.25;;;5.70;;
7398;SDS011;3740;50.700;7.184;2022-07-21T11:52:27;5.28;;;4.78;;
7398;SDS011;3740;50.700;7.184;2022-07-21T11:55:15;6.45;;;4.85;;
7398;SDS011;3740;50.700;7.184;2022-07-21T11:58:01;7.07;;;5.25;;
7398;SDS011;3740;50.700;7.184;2022-07-21T12:00:47;5.47;;;4.80;;
7398;SDS011;3740;50.700;7.184;2022-07-21T12:03:33;5.28;;;4.78;;
7398;SDS011;3740;50.700;7.184;2022-07-21T12:06:20;6.32;;;5.60;;
7398;SDS011;3740;50.700;7.184;2022-07-21T12:09:06;5.78;;;5.22;;
7398;SDS011;3740;50.700;7.184;2022-07-21T12:11:52;7.32;;;5.82;;
7398;SDS011;3740;50.700;7.184;2022-07-21T12:14:42;7.18;;;6.47;;
7398;SDS011;3740;50.700;7.184;2022-07-21T12:17:36;7.05;;;6.45;;
7398;SDS011;3740;50.700;7.184;2022-07-21T12:20:31;7.68;;;7.00;;
7398;SDS011;3740;50.700;7.184;2022-07-21T12:26:03;7.93;;;7.25;;
7398;SDS011;3740;50.700;7.184;2022-07-21T12:28:50;7.70;;;6.88;;
7398;SDS011;3740;50.700;7.184;2022-07-21T12:31:40;8.65;;;7.20;;
7398;SDS011;3740;50.700;7.184;2022-07-21T12:34:27;7.80;;;7.10;;
7398;SDS011;3740;50.700;7.184;2022-07-21T12:37:12;7.82;;;6.97;;
7398;SDS011;3740;50.700;7.184;2022-07-21T12:40:02;7.53;;;6.82;;
7398;SDS011;3740;50.700;7.184;2022-07-21T12:42:49;7.65;;;7.00;;
7398;SDS011;3740;50.700;7.184;2022-07-21T12:49:07;7.97;;;7.18;;
7398;SDS011;3740;50.700;7.184;2022-07-21T12:51:55;7.85;;;7.05;;
7398;SDS011;3740;50.700;7.184;2022-07-21T12:54:41;7.63;;;6.80;;
7398;SDS011;3740;50.700;7.184;2022-07-21T12:57:28;8.10;;;7.38;;
7398;SDS011;3740;50.700;7.184;2022-07-21T13:00:16;7.68;;;6.97;;
7398;SDS011;3740;50.700;7.184;2022-07-21T13:03:02;7.78;;;7.18;;
7398;SDS011;3740;50.700;7.184;2022-07-21T13:05:48;7.57;;;6.75;;
7398;SDS011;3740;50.700;7.184;2022-07-21T13:08:34;8.88;;;8.07;;
7398;SDS011;3740;50.700;7.184;2022-07-21T13:11:21;8.52;;;7.72;;
7398;SDS011;3740;50.700;7.184;2022-07-21T13:14:07;7.35;;;6.75;;
7398;SDS011;3740;50.700;7.184;2022-07-21T13:16:53;7.47;;;6.70;;
7398;SDS011;3740;50.700;7.184;2022-07-21T13:19:41;7.55;;;6.85;;
7398;SDS011;3740;50.700;7.184;2022-07-21T13:22:27;7.45;;;6.85;;
7398;SDS011;3740;50.700;7.184;2022-07-21T13:25:14;6.57;;;6.00;;
7398;SDS011;3740;50.700;7.184;2022-07-21T13:28:00;7.50;;;6.85;;
7398;SDS011;3740;50.700;7.184;2022-07-21T13:30:47;8.00;;;7.38;;
7398;SDS011;3740;50.700;7.184;2022-07-21T13:33:33;8.38;;;7.53;;
7398;SDS011;3740;50.700;7.184;2022-07-21T13:36:20;7.35;;;6.65;;
7398;SDS011;3740;50.700;7.184;2022-07-21T13:39:06;8.40;;;7.35;;
7398;SDS011;3740;50.700;7.184;2022-07-21T13:41:53;7.57;;;6.90;;
7398;SDS011;3740;50.700;7.184;2022-07-21T13:44:40;8.15;;;7.45;;
7398;SDS011;3740;50.700;7.184;2022-07-21T13:47:25;8.35;;;7.65;;
7398;SDS011;3740;50.700;7.184;2022-07-21T13:50:11;8.60;;;7.90;;
7398;SDS011;3740;50.700;7.184;2022-07-21T13:52:57;7.65;;;6.95;;
7398;SDS011;3740;50.700;7.184;2022-07-21T13:55:43;8.65;;;7.85;;
7398;SDS011;3740;50.700;7.184;2022-07-21T13:58:29;8.35;;;7.65;;
7398;SDS011;3740;50.700;7.184;2022-07-21T14:01:15;7.85;;;7.15;;
7398;SDS011;3740;50.700;7.184;2022-07-21T14:04:01;8.63;;;7.82;;
7398;SDS011;3740;50.700;7.184;2022-07-21T14:06:47;8.57;;;7.78;;
7398;SDS011;3740;50.700;7.184;2022-07-21T14:09:34;8.48;;;7.78;;
7398;SDS011;3740;50.700;7.184;2022-07-21T14:12:20;8.82;;;8.02;;
7398;SDS011;3740;50.700;7.184;2022-07-21T14:15:06;9.00;;;8.30;;
7398;SDS011;3740;50.700;7.184;2022-07-21T14:17:53;10.23;;;9.40;;
7398;SDS011;3740;50.700;7.184;2022-07-21T14:20:39;9.30;;;8.40;;
7398;SDS011;3740;50.700;7.184;2022-07-21T14:23:25;9.60;;;8.82;;
7398;SDS011;3740;50.700;7.184;2022-07-21T14:26:11;9.98;;;8.98;;
7398;SDS011;3740;50.700;7.184;2022-07-21T14:28:57;9.30;;;8.43;;
7398;SDS011;3740;50.700;7.184;2022-07-21T14:31:43;9.30;;;8.50;;
7398;SDS011;3740;50.700;7.184;2022-07-21T14:34:29;9.38;;;8.57;;
7398;SDS011;3740;50.700;7.184;2022-07-21T14:37:15;9.30;;;8.50;;
7398;SDS011;3740;50.700;7.184;2022-07-21T14:40:01;9.70;;;8.80;;
7398;SDS011;3740;50.700;7.184;2022-07-21T14:42:49;8.90;;;8.20;;
7398;SDS011;3740;50.700;7.184;2022-07-21T14:45:37;10.77;;;9.88;;
7398;SDS011;3740;50.700;7.184;2022-07-21T14:48:23;9.50;;;8.80;;
7398;SDS011;3740;50.700;7.184;2022-07-21T14:51:09;10.55;;;9.60;;
7398;SDS011;3740;50.700;7.184;2022-07-21T14:53:55;9.88;;;8.98;;
7398;SDS011;3740;50.700;7.184;2022-07-21T14:56:41;9.57;;;8.88;;
7398;SDS011;3740;50.700;7.184;2022-07-21T14:59:26;11.10;;;9.75;;
7398;SDS011;3740;50.700;7.184;2022-07-21T15:02:12;9.13;;;8.23;;
7398;SDS011;3740;50.700;7.184;2022-07-21T15:04:59;7.18;;;6.57;;
7398;SDS011;3740;50.700;7.184;2022-07-21T15:07:44;6.25;;;5.80;;
7398;SDS011;3740;50.700;7.184;2022-07-21T15:10:30;7.22;;;6.65;;
7398;SDS011;3740;50.700;7.184;2022-07-21T15:13:16;7.47;;;6.88;;
7398;SDS011;3740;50.700;7.184;2022-07-21T15:16:02;6.85;;;6.25;;
7398;SDS011;3740;50.700;7.184;2022-07-21T15:18:48;6.78;;;6.22;;
7398;SDS011;3740;50.700;7.184;2022-07-21T15:21:34;8.23;;;7.53;;
7398;SDS011;3740;50.700;7.184;2022-07-21T15:24:21;8.65;;;7.90;;
7398;SDS011;3740;50.700;7.184;2022-07-21T15:27:07;8.52;;;7.80;;
7398;SDS011;3740;50.700;7.184;2022-07-21T15:29:53;8.40;;;7.78;;
7398;SDS011;3740;50.700;7.184;2022-07-21T15:32:39;7.05;;;6.55;;
7398;SDS011;3740;50.700;7.184;2022-07-21T15:35:25;8.00;;;7.30;;
7398;SDS011;3740;50.700;7.184;2022-07-21T15:38:11;7.75;;;6.97;;
7398;SDS011;3740;50.700;7.184;2022-07-21T15:40:57;7.43;;;6.78;;
7398;SDS011;3740;50.700;7.184;2022-07-21T15:43:43;9.93;;;7.40;;
7398;SDS011;3740;50.700;7.184;2022-07-21T15:46:29;7.75;;;7.05;;
7398;SDS011;3740;50.700;7.184;2022-07-21T15:49:15;9.50;;;8.70;;
7398;SDS011;3740;50.700;7.184;2022-07-21T15:52:04;8.13;;;7.40;;
7398;SDS011;3740;50.700;7.184;2022-07-21T15:54:50;6.88;;;6.32;;
7398;SDS011;3740;50.700;7.184;2022-07-21T15:57:36;6.53;;;6.03;;
7398;SDS011;3740;50.700;7.184;2022-07-21T16:00:23;6.80;;;6.22;;
7398;SDS011;3740;50.700;7.184;2022-07-21T16:03:09;6.90;;;6.30;;
7398;SDS011;3740;50.700;7.184;2022-07-21T16:05:55;6.80;;;6.10;;
7398;SDS011;3740;50.700;7.184;2022-07-21T16:08:41;6.25;;;5.75;;
7398;SDS011;3740;50.700;7.184;2022-07-21T16:11:27;6.05;;;5.55;;
7398;SDS011;3740;50.700;7.184;2022-07-21T16:14:15;5.63;;;5.22;;
7398;SDS011;3740;50.700;7.184;2022-07-21T16:17:01;6.28;;;5.68;;
7398;SDS011;3740;50.700;7.184;2022-07-21T16:19:47;6.07;;;5.57;;
7398;SDS011;3740;50.700;7.184;2022-07-21T16:22:33;4.85;;;4.45;;
7398;SDS011;3740;50.700;7.184;2022-07-21T16:25:20;5.22;;;4.82;;
7398;SDS011;3740;50.700;7.184;2022-07-21T16:28:08;5.45;;;4.93;;
7398;SDS011;3740;50.700;7.184;2022-07-21T16:30:54;4.80;;;4.40;;
7398;SDS011;3740;50.700;7.184;2022-07-21T16:33:39;5.22;;;4.72;;
7398;SDS011;3740;50.700;7.184;2022-07-21T16:36:25;5.47;;;5.07;;
7398;SDS011;3740;50.700;7.184;2022-07-21T16:39:11;4.65;;;4.35;;
7398;SDS011;3740;50.700;7.184;2022-07-21T16:41:58;4.85;;;4.55;;
7398;SDS011;3740;50.700;7.184;2022-07-21T16:44:43;5.28;;;4.30;;
7398;SDS011;3740;50.700;7.184;2022-07-21T16:47:31;5.70;;;5.20;;
7398;SDS011;3740;50.700;7.184;2022-07-21T16:50:17;5.38;;;4.88;;
7398;SDS011;3740;50.700;7.184;2022-07-21T16:53:03;5.70;;;4.80;;
7398;SDS011;3740;50.700;7.184;2022-07-21T16:55:49;5.90;;;5.40;;
7398;SDS011;3740;50.700;7.184;2022-07-21T16:58:35;5.65;;;4.93;;
7398;SDS011;3740;50.700;7.184;2022-07-21T17:01:21;6.10;;;5.50;;
7398;SDS011;3740;50.700;7.184;2022-07-21T17:04:07;6.55;;;5.95;;
7398;SDS011;3740;50.700;7.184;2022-07-21T17:06:54;5.97;;;5.47;;
7398;SDS011;3740;50.700;7.184;2022-07-21T17:09:40;6.70;;;5.93;;
7398;SDS011;3740;50.700;7.184;2022-07-21T17:12:26;6.68;;;6.07;;
7398;SDS011;3740;50.700;7.184;2022-07-21T17:15:12;6.38;;;5.88;;
7398;SDS011;3740;50.700;7.184;2022-07-21T17:17:58;7.22;;;6.53;;
7398;SDS011;3740;50.700;7.184;2022-07-21T17:20:44;6.93;;;6.32;;
7398;SDS011;3740;50.700;7.184;2022-07-21T17:23:30;6.78;;;6.18;;
7398;SDS011;3740;50.700;7.184;2022-07-21T17:26:17;7.13;;;6.53;;
7398;SDS011;3740;50.700;7.184;2022-07-21T17:29:03;7.03;;;6.38;;
7398;SDS011;3740;50.700;7.184;2022-07-21T17:31:49;6.55;;;6.05;;
7398;SDS011;3740;50.700;7.184;2022-07-21T17:34:35;7.55;;;6.65;;